sensor_id;sensor_type;location;lat;lon;timestamp;P1;durP1;ratioP1;P2;durP2;ratioP2
27684;SDS011;46113;50.130;8.526;2023-09-18T00:01:37;6.05;;;2.88;;
27684;SDS011;46113;50.130;8.526;2023-09-18T00:04:06;3.10;;;2.70;;
27684;SDS011;46113;50.130;8.526;2023-09-18T00:06:33;5.85;;;2.97;;
27684;SDS011;46113;50.130;8.526;2023-09-18T00:09:00;5.82;;;3.55;;
27684;SDS011;46113;50.130;8.526;2023-09-18T00:11:27;3.42;;;3.13;;
27684;SDS011;46113;50.130;8.526;2023-09-18T00:13:54;3.13;;;2.72;;
27684;SDS011;46113;50.130;8.526;2023-09-18T00:16:21;5.38;;;3.53;;
27684;SDS011;46113;50.130;8.526;2023-09-18T00:18:48;4.40;;;3.17;;
27684;SDS011;46113;50.130;8.526;2023-09-18T00:21:16;4.25;;;2.95;;
27684;SDS011;46113;50.130;8.526;2023-09-18T00:23:43;5.45;;;3.38;;
27684;SDS011;46113;50.130;8.526;2023-09-18T00:26:10;6.35;;;3.60;;
27684;SDS011;46113;50.130;8.526;2023-09-18T00:28:39;4.47;;;3.35;;
27684;SDS011;46113;50.130;8.526;2023-09-18T00:31:06;9.27;;;2.90;;
27684;SDS011;46113;50.130;8.526;2023-09-18T00:33:34;5.30;;;2.92;;
27684;SDS011;46113;50.130;8.526;2023-09-18T00:36:01;3.88;;;3.47;;
27684;SDS011;46113;50.130;8.526;2023-09-18T00:38:28;3.80;;;3.08;;
27684;SDS011;46113;50.130;8.526;2023-09-18T00:40:55;6.43;;;3.10;;
27684;SDS011;46113;50.130;8.526;2023-09-18T00:43:22;9.07;;;3.20;;
27684;SDS011;46113;50.130;8.526;2023-09-18T00:45:49;7.95;;;3.83;;
27684;SDS011;46113;50.130;8.526;2023-09-18T00:48:17;4.13;;;2.95;;
27684;SDS011;46113;50.130;8.526;2023-09-18T00:50:44;4.88;;;3.63;;
27684;SDS011;46113;50.130;8.526;2023-09-18T00:53:30;6.38;;;3.08;;
27684;SDS011;46113;50.130;8.526;2023-09-18T00:55:57;6.20;;;3.03;;
27684;SDS011;46113;50.130;8.526;2023-09-18T00:58:27;6.07;;;3.25;;
27684;SDS011;46113;50.130;8.526;2023-09-18T01:00:54;3.65;;;2.95;;
27684;SDS011;46113;50.130;8.526;2023-09-18T01:03:22;5.10;;;3.45;;
27684;SDS011;46113;50.130;8.526;2023-09-18T01:05:53;4.07;;;3.08;;
27684;SDS011;46113;50.130;8.526;2023-09-18T01:08:20;6.07;;;2.75;;
27684;SDS011;46113;50.130;8.526;2023-09-18T01:13:41;5.10;;;3.53;;
27684;SDS011;46113;50.130;8.526;2023-09-18T01:16:15;5.03;;;3.28;;
27684;SDS011;46113;50.130;8.526;2023-09-18T01:18:50;3.38;;;3.03;;
27684;SDS011;46113;50.130;8.526;2023-09-18T01:21:19;4.03;;;3.30;;
27684;SDS011;46113;50.130;8.526;2023-09-18T01:23:47;4.18;;;3.45;;
27684;SDS011;46113;50.130;8.526;2023-09-18T01:26:15;4.10;;;3.15;;
27684;SDS011;46113;50.130;8.526;2023-09-18T01:28:42;3.83;;;3.05;;
27684;SDS011;46113;50.130;8.526;2023-09-18T01:31:10;4.25;;;3.55;;
27684;SDS011;46113;50.130;8.526;2023-09-18T01:33:37;3.13;;;2.53;;
27684;SDS011;46113;50.130;8.526;2023-09-18T01:36:08;4.90;;;3.22;;
27684;SDS011;46113;50.130;8.526;2023-09-18T01:38:36;4.20;;;3.45;;
27684;SDS011;46113;50.130;8.526;2023-09-18T01:41:03;6.10;;;3.47;;
27684;SDS011;46113;50.130;8.526;2023-09-18T01:43:31;5.55;;;3.10;;
27684;SDS011;46113;50.130;8.526;2023-09-18T01:45:58;3.28;;;2.95;;
27684;SDS011;46113;50.130;8.526;2023-09-18T01:48:25;3.83;;;3.05;;
27684;SDS011;46113;50.130;8.526;2023-09-18T01:50:52;4.15;;;3.20;;
27684;SDS011;46113;50.130;8.526;2023-09-18T01:53:19;13.27;;;3.65;;
27684;SDS011;46113;50.130;8.526;2023-09-18T01:55:46;5.72;;;2.75;;
27684;SDS011;46113;50.130;8.526;2023-09-18T01:58:14;5.93;;;3.05;;
27684;SDS011;46113;50.130;8.526;2023-09-18T02:00:43;4.93;;;3.05;;
27684;SDS011;46113;50.130;8.526;2023-09-18T02:03:11;3.25;;;2.75;;
27684;SDS011;46113;50.130;8.526;2023-09-18T02:05:58;3.42;;;3.13;;
27684;SDS011;46113;50.130;8.526;2023-09-18T02:08:25;3.15;;;2.90;;
27684;SDS011;46113;50.130;8.526;2023-09-18T02:10:54;6.30;;;3.53;;
27684;SDS011;46113;50.130;8.526;2023-09-18T02:13:21;4.88;;;3.17;;
27684;SDS011;46113;50.130;8.526;2023-09-18T02:15:48;5.47;;;4.07;;
27684;SDS011;46113;50.130;8.526;2023-09-18T02:18:16;5.18;;;2.85;;
27684;SDS011;46113;50.130;8.526;2023-09-18T02:20:42;3.58;;;3.28;;
27684;SDS011;46113;50.130;8.526;2023-09-18T02:23:14;3.25;;;2.90;;
27684;SDS011;46113;50.130;8.526;2023-09-18T02:25:42;3.42;;;3.13;;
27684;SDS011;46113;50.130;8.526;2023-09-18T02:28:09;4.03;;;3.58;;
27684;SDS011;46113;50.130;8.526;2023-09-18T02:30:37;3.38;;;3.08;;
27684;SDS011;46113;50.130;8.526;2023-09-18T02:33:04;4.80;;;4.20;;
27684;SDS011;46113;50.130;8.526;2023-09-18T02:35:34;7.15;;;3.70;;
27684;SDS011;46113;50.130;8.526;2023-09-18T02:38:01;5.53;;;3.05;;
27684;SDS011;46113;50.130;8.526;2023-09-18T02:40:30;3.88;;;3.38;;
27684;SDS011;46113;50.130;8.526;2023-09-18T02:42:57;3.67;;;3.38;;
27684;SDS011;46113;50.130;8.526;2023-09-18T02:45:24;4.93;;;3.60;;
27684;SDS011;46113;50.130;8.526;2023-09-18T02:47:51;4.35;;;3.45;;
27684;SDS011;46113;50.130;8.526;2023-09-18T02:50:18;3.13;;;2.70;;
27684;SDS011;46113;50.130;8.526;2023-09-18T02:52:46;3.63;;;2.90;;
27684;SDS011;46113;50.130;8.526;2023-09-18T02:55:12;5.05;;;3.50;;
27684;SDS011;46113;50.130;8.526;2023-09-18T02:57:42;7.32;;;3.20;;
27684;SDS011;46113;50.130;8.526;2023-09-18T03:00:10;12.15;;;4.35;;
27684;SDS011;46113;50.130;8.526;2023-09-18T03:02:37;9.82;;;3.63;;
27684;SDS011;46113;50.130;8.526;2023-09-18T03:05:04;4.05;;;3.65;;
27684;SDS011;46113;50.130;8.526;2023-09-18T03:07:32;4.15;;;3.15;;
27684;SDS011;46113;50.130;8.526;2023-09-18T03:09:59;4.30;;;3.35;;
27684;SDS011;46113;50.130;8.526;2023-09-18T03:12:26;4.18;;;3.42;;
27684;SDS011;46113;50.130;8.526;2023-09-18T03:14:55;6.32;;;3.45;;
27684;SDS011;46113;50.130;8.526;2023-09-18T03:17:21;4.95;;;3.35;;
27684;SDS011;46113;50.130;8.526;2023-09-18T03:19:49;5.75;;;3.90;;
27684;SDS011;46113;50.130;8.526;2023-09-18T03:22:16;8.30;;;4.25;;
27684;SDS011;46113;50.130;8.526;2023-09-18T03:24:43;5.07;;;3.85;;
27684;SDS011;46113;50.130;8.526;2023-09-18T03:27:10;4.88;;;4.00;;
27684;SDS011;46113;50.130;8.526;2023-09-18T03:29:37;10.45;;;4.05;;
27684;SDS011;46113;50.130;8.526;2023-09-18T03:32:04;5.03;;;3.65;;
27684;SDS011;46113;50.130;8.526;2023-09-18T03:34:32;5.65;;;3.80;;
27684;SDS011;46113;50.130;8.526;2023-09-18T03:36:59;7.90;;;3.88;;
27684;SDS011;46113;50.130;8.526;2023-09-18T03:39:26;6.15;;;3.65;;
27684;SDS011;46113;50.130;8.526;2023-09-18T03:41:54;6.43;;;3.78;;
27684;SDS011;46113;50.130;8.526;2023-09-18T03:44:21;5.57;;;3.85;;
27684;SDS011;46113;50.130;8.526;2023-09-18T03:46:50;7.38;;;4.07;;
27684;SDS011;46113;50.130;8.526;2023-09-18T03:49:17;7.80;;;4.45;;
27684;SDS011;46113;50.130;8.526;2023-09-18T03:51:44;4.38;;;3.97;;
27684;SDS011;46113;50.130;8.526;2023-09-18T03:54:11;6.95;;;4.00;;
27684;SDS011;46113;50.130;8.526;2023-09-18T03:56:38;5.97;;;3.35;;
27684;SDS011;46113;50.130;8.526;2023-09-18T03:59:05;4.97;;;4.13;;
27684;SDS011;46113;50.130;8.526;2023-09-18T04:01:32;6.20;;;4.50;;
27684;SDS011;46113;50.130;8.526;2023-09-18T04:03:59;5.60;;;3.65;;
27684;SDS011;46113;50.130;8.526;2023-09-18T04:07:04;8.20;;;4.22;;
27684;SDS011;46113;50.130;8.526;2023-09-18T04:09:24;6.63;;;4.20;;
27684;SDS011;46113;50.130;8.526;2023-09-18T04:11:51;5.78;;;4.03;;
27684;SDS011;46113;50.130;8.526;2023-09-18T04:14:18;12.32;;;4.40;;
27684;SDS011;46113;50.130;8.526;2023-09-18T04:16:46;9.38;;;3.35;;
27684;SDS011;46113;50.130;8.526;2023-09-18T04:19:13;9.88;;;4.22;;
27684;SDS011;46113;50.130;8.526;2023-09-18T04:21:39;4.30;;;3.03;;
27684;SDS011;46113;50.130;8.526;2023-09-18T04:24:13;3.22;;;2.92;;
27684;SDS011;46113;50.130;8.526;2023-09-18T04:26:40;4.13;;;2.95;;
27684;SDS011;46113;50.130;8.526;2023-09-18T04:29:08;5.80;;;3.20;;
27684;SDS011;46113;50.130;8.526;2023-09-18T04:31:35;7.57;;;3.60;;
27684;SDS011;46113;50.130;8.526;2023-09-18T04:34:02;8.02;;;2.83;;
27684;SDS011;46113;50.130;8.526;2023-09-18T04:36:29;4.03;;;3.08;;
27684;SDS011;46113;50.130;8.526;2023-09-18T04:38:56;4.05;;;3.25;;
27684;SDS011;46113;50.130;8.526;2023-09-18T04:41:23;3.70;;;3.03;;
27684;SDS011;46113;50.130;8.526;2023-09-18T04:43:52;4.63;;;3.45;;
27684;SDS011;46113;50.130;8.526;2023-09-18T04:46:19;4.13;;;2.80;;
27684;SDS011;46113;50.130;8.526;2023-09-18T04:48:45;4.22;;;3.75;;
27684;SDS011;46113;50.130;8.526;2023-09-18T04:51:13;3.15;;;2.85;;
27684;SDS011;46113;50.130;8.526;2023-09-18T04:53:39;8.60;;;2.92;;
27684;SDS011;46113;50.130;8.526;2023-09-18T04:56:08;3.05;;;2.47;;
27684;SDS011;46113;50.130;8.526;2023-09-18T04:58:37;4.78;;;2.35;;
27684;SDS011;46113;50.130;8.526;2023-09-18T05:01:04;4.10;;;2.25;;
27684;SDS011;46113;50.130;8.526;2023-09-18T05:03:33;4.60;;;2.45;;
27684;SDS011;46113;50.130;8.526;2023-09-18T05:06:08;10.38;;;2.78;;
27684;SDS011;46113;50.130;8.526;2023-09-18T05:08:35;6.40;;;2.85;;
27684;SDS011;46113;50.130;8.526;2023-09-18T05:11:02;4.50;;;2.83;;
27684;SDS011;46113;50.130;8.526;2023-09-18T05:13:28;3.53;;;2.40;;
27684;SDS011;46113;50.130;8.526;2023-09-18T05:15:55;5.70;;;3.17;;
27684;SDS011;46113;50.130;8.526;2023-09-18T05:18:22;6.57;;;3.35;;
27684;SDS011;46113;50.130;8.526;2023-09-18T05:20:49;4.95;;;3.10;;
27684;SDS011;46113;50.130;8.526;2023-09-18T05:23:16;3.35;;;2.83;;
27684;SDS011;46113;50.130;8.526;2023-09-18T05:25:44;7.55;;;2.83;;
27684;SDS011;46113;50.130;8.526;2023-09-18T05:28:11;4.18;;;3.03;;
27684;SDS011;46113;50.130;8.526;2023-09-18T05:30:37;5.93;;;3.30;;
27684;SDS011;46113;50.130;8.526;2023-09-18T05:33:07;4.32;;;2.80;;
27684;SDS011;46113;50.130;8.526;2023-09-18T05:35:44;5.47;;;3.33;;
27684;SDS011;46113;50.130;8.526;2023-09-18T05:38:12;6.35;;;3.75;;
27684;SDS011;46113;50.130;8.526;2023-09-18T05:40:44;5.77;;;3.03;;
27684;SDS011;46113;50.130;8.526;2023-09-18T05:43:11;8.10;;;3.00;;
27684;SDS011;46113;50.130;8.526;2023-09-18T05:45:38;6.07;;;3.00;;
27684;SDS011;46113;50.130;8.526;2023-09-18T05:48:06;10.05;;;3.33;;
27684;SDS011;46113;50.130;8.526;2023-09-18T05:50:34;6.18;;;2.58;;
27684;SDS011;46113;50.130;8.526;2023-09-18T05:53:02;7.97;;;3.33;;
27684;SDS011;46113;50.130;8.526;2023-09-18T05:55:32;11.60;;;3.25;;
27684;SDS011;46113;50.130;8.526;2023-09-18T05:58:00;7.25;;;3.15;;
27684;SDS011;46113;50.130;8.526;2023-09-18T06:00:29;7.25;;;3.25;;
27684;SDS011;46113;50.130;8.526;2023-09-18T06:02:57;8.80;;;3.30;;
27684;SDS011;46113;50.130;8.526;2023-09-18T06:05:25;11.85;;;3.03;;
27684;SDS011;46113;50.130;8.526;2023-09-18T06:07:52;7.30;;;3.03;;
27684;SDS011;46113;50.130;8.526;2023-09-18T06:10:19;6.55;;;2.90;;
27684;SDS011;46113;50.130;8.526;2023-09-18T06:12:46;10.10;;;2.50;;
27684;SDS011;46113;50.130;8.526;2023-09-18T06:15:12;5.95;;;3.58;;
27684;SDS011;46113;50.130;8.526;2023-09-18T06:17:43;5.20;;;2.05;;
27684;SDS011;46113;50.130;8.526;2023-09-18T06:20:11;8.35;;;3.58;;
27684;SDS011;46113;50.130;8.526;2023-09-18T06:22:42;5.60;;;2.72;;
27684;SDS011;46113;50.130;8.526;2023-09-18T06:25:09;5.82;;;2.60;;
27684;SDS011;46113;50.130;8.526;2023-09-18T06:27:37;3.47;;;2.10;;
27684;SDS011;46113;50.130;8.526;2023-09-18T06:30:04;5.82;;;2.25;;
27684;SDS011;46113;50.130;8.526;2023-09-18T06:32:32;5.93;;;2.22;;
27684;SDS011;46113;50.130;8.526;2023-09-18T06:34:59;5.03;;;1.95;;
27684;SDS011;46113;50.130;8.526;2023-09-18T06:37:26;2.95;;;1.90;;
27684;SDS011;46113;50.130;8.526;2023-09-18T06:39:53;6.07;;;2.70;;
27684;SDS011;46113;50.130;8.526;2023-09-18T06:42:20;6.97;;;2.30;;
27684;SDS011;46113;50.130;8.526;2023-09-18T06:44:55;5.50;;;2.63;;
27684;SDS011;46113;50.130;8.526;2023-09-18T06:47:24;6.65;;;2.72;;
27684;SDS011;46113;50.130;8.526;2023-09-18T06:49:51;3.28;;;2.38;;
27684;SDS011;46113;50.130;8.526;2023-09-18T06:52:18;6.97;;;2.90;;
27684;SDS011;46113;50.130;8.526;2023-09-18T06:54:45;11.65;;;2.67;;
27684;SDS011;46113;50.130;8.526;2023-09-18T06:57:12;6.00;;;2.45;;
27684;SDS011;46113;50.130;8.526;2023-09-18T06:59:38;4.95;;;2.65;;
27684;SDS011;46113;50.130;8.526;2023-09-18T07:02:05;5.88;;;2.33;;
27684;SDS011;46113;50.130;8.526;2023-09-18T07:04:33;3.28;;;2.13;;
27684;SDS011;46113;50.130;8.526;2023-09-18T07:06:59;7.38;;;2.92;;
27684;SDS011;46113;50.130;8.526;2023-09-18T07:09:26;5.20;;;2.70;;
27684;SDS011;46113;50.130;8.526;2023-09-18T07:11:53;4.28;;;1.90;;
27684;SDS011;46113;50.130;8.526;2023-09-18T07:14:19;5.97;;;2.33;;
27684;SDS011;46113;50.130;8.526;2023-09-18T07:16:46;4.53;;;2.28;;
27684;SDS011;46113;50.130;8.526;2023-09-18T07:19:13;7.80;;;1.90;;
27684;SDS011;46113;50.130;8.526;2023-09-18T07:21:43;4.18;;;2.10;;
27684;SDS011;46113;50.130;8.526;2023-09-18T07:24:11;1.77;;;1.60;;
27684;SDS011;46113;50.130;8.526;2023-09-18T07:26:44;5.67;;;2.00;;
27684;SDS011;46113;50.130;8.526;2023-09-18T07:29:12;2.90;;;1.88;;
27684;SDS011;46113;50.130;8.526;2023-09-18T07:31:43;4.65;;;1.90;;
27684;SDS011;46113;50.130;8.526;2023-09-18T07:34:10;3.30;;;2.00;;
27684;SDS011;46113;50.130;8.526;2023-09-18T07:36:40;5.43;;;1.67;;
27684;SDS011;46113;50.130;8.526;2023-09-18T07:39:07;7.85;;;1.92;;
27684;SDS011;46113;50.130;8.526;2023-09-18T07:41:33;8.07;;;2.10;;
27684;SDS011;46113;50.130;8.526;2023-09-18T07:44:00;10.30;;;1.73;;
27684;SDS011;46113;50.130;8.526;2023-09-18T07:46:27;9.32;;;1.90;;
27684;SDS011;46113;50.130;8.526;2023-09-18T07:48:53;6.43;;;1.90;;
27684;SDS011;46113;50.130;8.526;2023-09-18T07:51:20;7.18;;;1.88;;
27684;SDS011;46113;50.130;8.526;2023-09-18T07:53:47;4.50;;;1.30;;
27684;SDS011;46113;50.130;8.526;2023-09-18T07:56:14;4.30;;;1.60;;
27684;SDS011;46113;50.130;8.526;2023-09-18T07:58:41;3.10;;;1.80;;
27684;SDS011;46113;50.130;8.526;2023-09-18T08:01:08;5.78;;;1.65;;
27684;SDS011;46113;50.130;8.526;2023-09-18T08:03:36;6.55;;;1.60;;
27684;SDS011;46113;50.130;8.526;2023-09-18T08:06:03;5.72;;;1.45;;
27684;SDS011;46113;50.130;8.526;2023-09-18T08:08:31;5.35;;;1.77;;
27684;SDS011;46113;50.130;8.526;2023-09-18T08:11:04;3.65;;;1.70;;
27684;SDS011;46113;50.130;8.526;2023-09-18T08:13:36;7.93;;;1.35;;
27684;SDS011;46113;50.130;8.526;2023-09-18T08:16:05;6.05;;;1.75;;
27684;SDS011;46113;50.130;8.526;2023-09-18T08:18:33;9.40;;;1.75;;
27684;SDS011;46113;50.130;8.526;2023-09-18T08:21:01;3.28;;;1.73;;
27684;SDS011;46113;50.130;8.526;2023-09-18T08:23:28;5.20;;;1.42;;
27684;SDS011;46113;50.130;8.526;2023-09-18T08:25:54;8.85;;;1.77;;
27684;SDS011;46113;50.130;8.526;2023-09-18T08:28:23;8.15;;;1.67;;
27684;SDS011;46113;50.130;8.526;2023-09-18T08:30:50;6.60;;;1.50;;
27684;SDS011;46113;50.130;8.526;2023-09-18T08:33:16;5.07;;;1.08;;
27684;SDS011;46113;50.130;8.526;2023-09-18T08:35:43;4.47;;;1.15;;
27684;SDS011;46113;50.130;8.526;2023-09-18T08:38:10;13.57;;;3.60;;
27684;SDS011;46113;50.130;8.526;2023-09-18T08:40:37;9.60;;;1.98;;
27684;SDS011;46113;50.130;8.526;2023-09-18T08:43:07;3.28;;;1.63;;
27684;SDS011;46113;50.130;8.526;2023-09-18T08:48:10;6.13;;;1.33;;
27684;SDS011;46113;50.130;8.526;2023-09-18T08:50:37;5.78;;;1.70;;
27684;SDS011;46113;50.130;8.526;2023-09-18T08:53:05;8.43;;;1.65;;
27684;SDS011;46113;50.130;8.526;2023-09-18T08:55:33;6.60;;;1.40;;
27684;SDS011;46113;50.130;8.526;2023-09-18T08:58:00;7.72;;;1.08;;
27684;SDS011;46113;50.130;8.526;2023-09-18T09:00:27;4.38;;;1.13;;
27684;SDS011;46113;50.130;8.526;2023-09-18T09:02:54;10.02;;;0.90;;
27684;SDS011;46113;50.130;8.526;2023-09-18T09:05:21;7.53;;;1.42;;
27684;SDS011;46113;50.130;8.526;2023-09-18T09:07:48;3.53;;;0.88;;
27684;SDS011;46113;50.130;8.526;2023-09-18T09:10:16;7.70;;;1.40;;
27684;SDS011;46113;50.130;8.526;2023-09-18T09:12:51;4.72;;;1.13;;
27684;SDS011;46113;50.130;8.526;2023-09-18T09:15:31;4.15;;;1.10;;
27684;SDS011;46113;50.130;8.526;2023-09-18T09:18:11;5.35;;;1.45;;
27684;SDS011;46113;50.130;8.526;2023-09-18T09:20:38;7.72;;;1.30;;
27684;SDS011;46113;50.130;8.526;2023-09-18T09:23:08;3.30;;;1.15;;
27684;SDS011;46113;50.130;8.526;2023-09-18T09:25:36;4.55;;;0.90;;
27684;SDS011;46113;50.130;8.526;2023-09-18T09:28:06;3.75;;;0.88;;
27684;SDS011;46113;50.130;8.526;2023-09-18T09:30:34;6.80;;;0.90;;
27684;SDS011;46113;50.130;8.526;2023-09-18T09:33:09;5.45;;;1.58;;
27684;SDS011;46113;50.130;8.526;2023-09-18T09:35:38;4.93;;;0.88;;
27684;SDS011;46113;50.130;8.526;2023-09-18T09:38:09;9.77;;;1.23;;
27684;SDS011;46113;50.130;8.526;2023-09-18T09:40:38;2.13;;;0.65;;
27684;SDS011;46113;50.130;8.526;2023-09-18T09:43:08;3.35;;;0.90;;
27684;SDS011;46113;50.130;8.526;2023-09-18T09:45:35;2.17;;;1.15;;
27684;SDS011;46113;50.130;8.526;2023-09-18T09:48:03;0.98;;;0.60;;
27684;SDS011;46113;50.130;8.526;2023-09-18T09:50:33;1.77;;;0.75;;
27684;SDS011;46113;50.130;8.526;2023-09-18T09:53:13;3.53;;;0.95;;
27684;SDS011;46113;50.130;8.526;2023-09-18T09:55:40;3.55;;;0.70;;
27684;SDS011;46113;50.130;8.526;2023-09-18T09:58:07;5.10;;;0.85;;
27684;SDS011;46113;50.130;8.526;2023-09-18T10:03:12;3.25;;;1.35;;
27684;SDS011;46113;50.130;8.526;2023-09-18T10:05:41;5.28;;;1.10;;
27684;SDS011;46113;50.130;8.526;2023-09-18T10:10:51;3.15;;;0.85;;
27684;SDS011;46113;50.130;8.526;2023-09-18T10:13:20;2.53;;;0.80;;
27684;SDS011;46113;50.130;8.526;2023-09-18T10:18:22;2.28;;;1.02;;
27684;SDS011;46113;50.130;8.526;2023-09-18T10:21:03;14.95;;;1.02;;
27684;SDS011;46113;50.130;8.526;2023-09-18T10:26:25;5.80;;;1.88;;
27684;SDS011;46113;50.130;8.526;2023-09-18T10:28:56;3.30;;;0.80;;
27684;SDS011;46113;50.130;8.526;2023-09-18T10:31:29;4.50;;;0.82;;
27684;SDS011;46113;50.130;8.526;2023-09-18T10:33:57;1.05;;;0.57;;
27684;SDS011;46113;50.130;8.526;2023-09-18T10:36:25;5.38;;;0.70;;
27684;SDS011;46113;50.130;8.526;2023-09-18T10:38:59;3.08;;;0.80;;
27684;SDS011;46113;50.130;8.526;2023-09-18T10:41:26;1.45;;;0.80;;
27684;SDS011;46113;50.130;8.526;2023-09-18T10:43:53;2.58;;;0.60;;
27684;SDS011;46113;50.130;8.526;2023-09-18T10:46:26;6.00;;;0.93;;
27684;SDS011;46113;50.130;8.526;2023-09-18T10:48:53;1.95;;;0.73;;
27684;SDS011;46113;50.130;8.526;2023-09-18T10:51:21;1.70;;;0.68;;
27684;SDS011;46113;50.130;8.526;2023-09-18T10:53:50;3.47;;;0.60;;
27684;SDS011;46113;50.130;8.526;2023-09-18T10:56:19;1.35;;;0.60;;
27684;SDS011;46113;50.130;8.526;2023-09-18T10:58:46;0.77;;;0.63;;
27684;SDS011;46113;50.130;8.526;2023-09-18T11:01:23;4.55;;;1.08;;
27684;SDS011;46113;50.130;8.526;2023-09-18T11:03:50;3.65;;;0.60;;
27684;SDS011;46113;50.130;8.526;2023-09-18T11:06:17;6.10;;;0.65;;
27684;SDS011;46113;50.130;8.526;2023-09-18T11:08:48;4.35;;;1.58;;
27684;SDS011;46113;50.130;8.526;2023-09-18T11:11:17;2.15;;;0.70;;
27684;SDS011;46113;50.130;8.526;2023-09-18T11:13:47;5.05;;;0.90;;
27684;SDS011;46113;50.130;8.526;2023-09-18T11:16:32;2.05;;;0.70;;
27684;SDS011;46113;50.130;8.526;2023-09-18T11:19:08;3.55;;;0.82;;
27684;SDS011;46113;50.130;8.526;2023-09-18T11:21:37;5.13;;;1.77;;
27684;SDS011;46113;50.130;8.526;2023-09-18T11:24:08;4.10;;;0.65;;
27684;SDS011;46113;50.130;8.526;2023-09-18T11:26:44;2.78;;;0.90;;
27684;SDS011;46113;50.130;8.526;2023-09-18T11:29:22;3.40;;;0.73;;
27684;SDS011;46113;50.130;8.526;2023-09-18T11:31:53;3.83;;;0.75;;
27684;SDS011;46113;50.130;8.526;2023-09-18T11:34:28;4.95;;;1.10;;
27684;SDS011;46113;50.130;8.526;2023-09-18T11:37:01;7.82;;;0.95;;
27684;SDS011;46113;50.130;8.526;2023-09-18T11:39:52;1.67;;;0.70;;
27684;SDS011;46113;50.130;8.526;2023-09-18T11:42:20;3.72;;;1.00;;
27684;SDS011;46113;50.130;8.526;2023-09-18T11:44:49;4.93;;;0.75;;
27684;SDS011;46113;50.130;8.526;2023-09-18T11:47:17;3.42;;;0.93;;
27684;SDS011;46113;50.130;8.526;2023-09-18T11:49:47;2.83;;;0.60;;
27684;SDS011;46113;50.130;8.526;2023-09-18T11:52:20;2.65;;;0.63;;
27684;SDS011;46113;50.130;8.526;2023-09-18T11:54:48;6.28;;;0.82;;
27684;SDS011;46113;50.130;8.526;2023-09-18T11:57:15;3.90;;;0.70;;
27684;SDS011;46113;50.130;8.526;2023-09-18T11:59:41;3.13;;;0.85;;
27684;SDS011;46113;50.130;8.526;2023-09-18T12:02:26;2.17;;;0.77;;
27684;SDS011;46113;50.130;8.526;2023-09-18T12:05:05;3.05;;;0.80;;
27684;SDS011;46113;50.130;8.526;2023-09-18T12:07:36;9.73;;;1.88;;
27684;SDS011;46113;50.130;8.526;2023-09-18T12:10:04;1.10;;;0.63;;
27684;SDS011;46113;50.130;8.526;2023-09-18T12:12:35;3.53;;;1.00;;
27684;SDS011;46113;50.130;8.526;2023-09-18T12:15:02;7.95;;;1.73;;
27684;SDS011;46113;50.130;8.526;2023-09-18T12:17:30;2.92;;;0.80;;
27684;SDS011;46113;50.130;8.526;2023-09-18T12:19:56;5.75;;;0.90;;
27684;SDS011;46113;50.130;8.526;2023-09-18T12:22:26;4.50;;;0.75;;
27684;SDS011;46113;50.130;8.526;2023-09-18T12:25:13;3.67;;;1.35;;
27684;SDS011;46113;50.130;8.526;2023-09-18T12:27:42;4.80;;;1.35;;
27684;SDS011;46113;50.130;8.526;2023-09-18T12:30:10;2.80;;;0.80;;
27684;SDS011;46113;50.130;8.526;2023-09-18T12:32:39;4.63;;;1.00;;
27684;SDS011;46113;50.130;8.526;2023-09-18T12:35:06;2.38;;;0.88;;
27684;SDS011;46113;50.130;8.526;2023-09-18T12:37:40;4.32;;;0.77;;
27684;SDS011;46113;50.130;8.526;2023-09-18T12:40:21;2.05;;;0.80;;
27684;SDS011;46113;50.130;8.526;2023-09-18T12:42:49;1.50;;;1.13;;
27684;SDS011;46113;50.130;8.526;2023-09-18T12:45:16;1.40;;;0.52;;
27684;SDS011;46113;50.130;8.526;2023-09-18T12:47:43;3.95;;;1.02;;
27684;SDS011;46113;50.130;8.526;2023-09-18T12:50:14;5.43;;;0.90;;
27684;SDS011;46113;50.130;8.526;2023-09-18T12:52:41;5.72;;;0.95;;
27684;SDS011;46113;50.130;8.526;2023-09-18T12:55:08;1.05;;;0.70;;
27684;SDS011;46113;50.130;8.526;2023-09-18T12:57:46;1.73;;;1.00;;
27684;SDS011;46113;50.130;8.526;2023-09-18T13:00:13;4.55;;;1.02;;
27684;SDS011;46113;50.130;8.526;2023-09-18T13:02:44;2.85;;;0.93;;
27684;SDS011;46113;50.130;8.526;2023-09-18T13:05:11;5.80;;;1.02;;
27684;SDS011;46113;50.130;8.526;2023-09-18T13:07:43;2.08;;;0.65;;
27684;SDS011;46113;50.130;8.526;2023-09-18T13:10:11;3.80;;;0.98;;
27684;SDS011;46113;50.130;8.526;2023-09-18T13:12:40;3.20;;;0.98;;
27684;SDS011;46113;50.130;8.526;2023-09-18T13:15:08;5.20;;;1.27;;
27684;SDS011;46113;50.130;8.526;2023-09-18T13:17:42;7.05;;;1.02;;
27684;SDS011;46113;50.130;8.526;2023-09-18T13:20:12;1.30;;;0.90;;
27684;SDS011;46113;50.130;8.526;2023-09-18T13:22:40;4.43;;;1.00;;
27684;SDS011;46113;50.130;8.526;2023-09-18T13:25:10;2.58;;;0.90;;
27684;SDS011;46113;50.130;8.526;2023-09-18T13:27:37;3.78;;;0.77;;
27684;SDS011;46113;50.130;8.526;2023-09-18T13:30:08;0.82;;;0.68;;
27684;SDS011;46113;50.130;8.526;2023-09-18T13:32:36;0.75;;;0.45;;
27684;SDS011;46113;50.130;8.526;2023-09-18T13:35:06;6.07;;;1.15;;
27684;SDS011;46113;50.130;8.526;2023-09-18T13:37:34;4.78;;;0.82;;
27684;SDS011;46113;50.130;8.526;2023-09-18T13:40:01;7.88;;;1.33;;
27684;SDS011;46113;50.130;8.526;2023-09-18T13:42:29;1.70;;;1.10;;
27684;SDS011;46113;50.130;8.526;2023-09-18T13:44:57;2.20;;;0.80;;
27684;SDS011;46113;50.130;8.526;2023-09-18T13:47:33;3.50;;;0.70;;
27684;SDS011;46113;50.130;8.526;2023-09-18T13:50:01;1.50;;;0.73;;
27684;SDS011;46113;50.130;8.526;2023-09-18T13:52:31;4.53;;;0.68;;
27684;SDS011;46113;50.130;8.526;2023-09-18T13:54:59;3.40;;;0.77;;
27684;SDS011;46113;50.130;8.526;2023-09-18T13:57:26;4.22;;;0.93;;
27684;SDS011;46113;50.130;8.526;2023-09-18T13:59:54;7.07;;;1.08;;
27684;SDS011;46113;50.130;8.526;2023-09-18T14:02:20;3.13;;;1.00;;
27684;SDS011;46113;50.130;8.526;2023-09-18T14:04:49;1.10;;;0.63;;
27684;SDS011;46113;50.130;8.526;2023-09-18T14:07:17;9.10;;;0.90;;
27684;SDS011;46113;50.130;8.526;2023-09-18T14:09:43;4.55;;;1.13;;
27684;SDS011;46113;50.130;8.526;2023-09-18T14:12:13;1.95;;;1.10;;
27684;SDS011;46113;50.130;8.526;2023-09-18T14:14:39;1.48;;;0.80;;
27684;SDS011;46113;50.130;8.526;2023-09-18T14:17:08;3.05;;;0.85;;
27684;SDS011;46113;50.130;8.526;2023-09-18T14:19:36;6.55;;;1.20;;
27684;SDS011;46113;50.130;8.526;2023-09-18T14:22:06;4.70;;;0.75;;
27684;SDS011;46113;50.130;8.526;2023-09-18T14:24:33;4.35;;;1.20;;
27684;SDS011;46113;50.130;8.526;2023-09-18T14:27:00;7.97;;;1.25;;
27684;SDS011;46113;50.130;8.526;2023-09-18T14:29:28;3.85;;;1.00;;
27684;SDS011;46113;50.130;8.526;2023-09-18T14:31:56;1.63;;;1.13;;
27684;SDS011;46113;50.130;8.526;2023-09-18T14:34:23;3.05;;;0.57;;
27684;SDS011;46113;50.130;8.526;2023-09-18T14:36:50;3.20;;;0.85;;
27684;SDS011;46113;50.130;8.526;2023-09-18T14:39:17;7.32;;;0.88;;
27684;SDS011;46113;50.130;8.526;2023-09-18T14:41:44;3.33;;;1.58;;
27684;SDS011;46113;50.130;8.526;2023-09-18T14:44:11;3.63;;;0.90;;
27684;SDS011;46113;50.130;8.526;2023-09-18T14:46:37;1.13;;;0.68;;
27684;SDS011;46113;50.130;8.526;2023-09-18T14:49:05;2.72;;;0.80;;
27684;SDS011;46113;50.130;8.526;2023-09-18T14:51:34;2.25;;;0.70;;
27684;SDS011;46113;50.130;8.526;2023-09-18T14:54:01;3.60;;;1.13;;
27684;SDS011;46113;50.130;8.526;2023-09-18T14:56:30;3.00;;;1.15;;
27684;SDS011;46113;50.130;8.526;2023-09-18T14:58:57;3.42;;;0.50;;
27684;SDS011;46113;50.130;8.526;2023-09-18T15:01:24;5.72;;;0.98;;
27684;SDS011;46113;50.130;8.526;2023-09-18T15:03:51;4.55;;;1.02;;
27684;SDS011;46113;50.130;8.526;2023-09-18T15:06:18;5.55;;;1.08;;
27684;SDS011;46113;50.130;8.526;2023-09-18T15:08:46;2.67;;;1.02;;
27684;SDS011;46113;50.130;8.526;2023-09-18T15:11:14;3.92;;;0.85;;
27684;SDS011;46113;50.130;8.526;2023-09-18T15:13:44;2.72;;;1.00;;